createdAt,value
2023-05-25T00:00:11.175Z,37641.38
2023-05-25T00:02:39.554Z,37601.50
2023-05-25T00:05:09.156Z,37617.44
2023-05-25T00:07:35.773Z,37613.44
2023-05-25T00:10:02.359Z,37623.41
2023-05-25T00:12:28.854Z,37629.41
2023-05-25T00:14:55.395Z,37609.47
2023-05-25T00:17:21.908Z,37613.44
2023-05-25T00:19:48.672Z,37613.44
2023-05-25T00:22:15.403Z,37617.44
2023-05-25T00:24:41.890Z,37613.44
2023-05-25T00:27:08.733Z,37633.38
2023-05-25T00:29:36.244Z,37595.50
2023-05-25T00:32:03.313Z,37597.50
2023-05-25T00:34:29.735Z,37597.50
2023-05-25T00:36:56.296Z,37601.50
2023-05-25T00:39:22.971Z,37621.44
2023-05-25T00:41:49.999Z,37619.44
2023-05-25T00:44:21.298Z,37605.47
2023-05-25T00:46:50.219Z,37637.38
2023-05-25T00:49:19.121Z,37617.44
2023-05-25T00:51:47.622Z,37593.50
2023-05-25T00:54:16.023Z,37645.34
2023-05-25T00:57:04.130Z,37637.38
2023-05-25T00:59:40.756Z,37641.38
2023-05-25T01:02:10.171Z,37649.34
2023-05-25T01:04:42.244Z,37651.34
2023-05-25T01:07:11.252Z,37671.28
2023-05-25T01:09:40.732Z,37649.34
2023-05-25T01:12:09.119Z,37683.22
2023-05-25T01:14:39.676Z,37665.28
2023-05-25T01:17:06.821Z,37661.31
2023-05-25T01:19:35.793Z,37709.16
2023-05-25T01:22:13.341Z,37693.19
2023-05-25T01:24:46.692Z,37667.28
2023-05-25T01:27:32.508Z,37725.09
2023-05-25T01:29:59.969Z,37701.19
2023-05-25T01:32:27.068Z,37695.19
2023-05-25T01:34:56.652Z,37685.22
2023-05-25T01:37:26.251Z,37707.16
2023-05-25T01:39:52.768Z,37693.19
2023-05-25T01:42:19.181Z,37715.13
2023-05-25T01:44:45.767Z,37721.13
2023-05-25T01:47:41.185Z,37693.19
2023-05-25T01:50:24.026Z,37737.06
2023-05-25T01:53:19.318Z,37707.16
2023-05-25T01:56:08.438Z,37709.16
2023-05-25T01:58:39.901Z,37689.22
2023-05-25T02:01:09.541Z,37701.19
2023-05-25T02:03:38.018Z,37697.19
2023-05-25T02:06:04.731Z,37709.16
2023-05-25T02:08:34.700Z,37721.13
2023-05-25T02:11:01.518Z,37681.25
2023-05-25T02:13:28.445Z,37707.16
2023-05-25T02:15:55.063Z,37709.16
2023-05-25T02:18:22.201Z,37689.22
2023-05-25T02:20:48.830Z,37687.22
2023-05-25T02:23:15.441Z,37689.22
2023-05-25T02:25:42.750Z,37689.22
2023-05-25T02:28:09.627Z,37721.13
2023-05-25T02:30:36.263Z,37709.16
2023-05-25T02:33:02.784Z,37707.16
2023-05-25T02:35:29.418Z,37705.16
2023-05-25T02:37:56.077Z,37687.22
2023-05-25T02:40:22.676Z,37685.22
2023-05-25T02:42:49.151Z,37667.28
2023-05-25T02:45:16.843Z,37677.25
2023-05-25T02:47:43.386Z,37697.19
2023-05-25T02:50:10.148Z,37705.16
2023-05-25T02:52:42.565Z,37685.22
2023-05-25T02:55:13.589Z,37725.09
2023-05-25T02:57:42.757Z,37687.22
2023-05-25T03:00:12.364Z,37681.25
2023-05-25T03:02:39.367Z,37713.13
2023-05-25T03:05:06.433Z,37697.19
2023-05-25T03:07:34.404Z,37693.19
2023-05-25T03:10:00.913Z,37707.16
2023-05-25T03:12:27.392Z,37739.06
2023-05-25T03:14:53.948Z,37737.06
2023-05-25T03:17:22.205Z,37745.03
2023-05-25T03:19:48.780Z,37768.97
2023-05-25T03:22:15.588Z,37764.97
2023-05-25T03:24:44.934Z,37790.91
2023-05-25T03:27:11.930Z,37806.84
2023-05-25T03:29:38.710Z,37808.84
2023-05-25T03:32:05.938Z,37812.84
2023-05-25T03:34:35.239Z,37844.75
2023-05-25T03:37:03.441Z,37822.81
2023-05-25T03:39:30.380Z,37836.75
2023-05-25T03:41:58.067Z,37860.69
2023-05-25T03:44:25.232Z,37868.66
2023-05-25T03:46:51.927Z,37858.69
2023-05-25T03:49:18.465Z,37872.66
2023-05-25T03:51:45.128Z,37892.59
2023-05-25T03:54:13.372Z,37896.59
2023-05-25T03:56:39.809Z,37912.53
2023-05-25T03:59:06.441Z,37928.47
2023-05-25T04:01:33.063Z,37936.47
2023-05-25T04:04:00.149Z,37940.44
2023-05-25T04:06:26.706Z,37924.50
2023-05-25T04:08:53.172Z,37968.38
2023-05-25T04:11:20.844Z,37964.38
2023-05-25T04:13:47.285Z,37990.28
2023-05-25T04:16:14.535Z,37960.38
2023-05-25T04:18:41.545Z,37964.38
2023-05-25T04:21:08.021Z,37988.31
2023-05-25T04:23:34.532Z,37990.28
2023-05-25T04:26:01.534Z,37996.28
2023-05-25T04:28:28.290Z,38032.16
2023-05-25T04:31:09.584Z,38056.09
2023-05-25T04:33:49.853Z,38042.13
2023-05-25T04:36:28.124Z,38032.16
2023-05-25T04:38:55.315Z,38038.16
2023-05-25T04:41:23.326Z,38070.06
2023-05-25T04:44:06.918Z,38095.97
2023-05-25T04:46:38.890Z,38072.06
2023-05-25T04:49:08.196Z,38095.97
2023-05-25T04:51:35.805Z,38115.91
2023-05-25T04:54:02.824Z,38088.00
2023-05-25T04:56:29.563Z,38123.91
2023-05-25T04:58:57.044Z,38135.88
2023-05-25T05:01:24.296Z,38119.91
2023-05-25T05:03:58.970Z,38159.78
2023-05-25T05:06:25.734Z,38167.78
2023-05-25T05:08:52.355Z,38147.81
2023-05-25T05:11:18.799Z,38209.66
2023-05-25T05:13:45.440Z,38163.78
2023-05-25T05:16:11.913Z,38199.69
2023-05-25T05:18:39.533Z,38169.75
2023-05-25T05:21:06.425Z,38183.72
2023-05-25T05:23:34.730Z,38153.81
2023-05-25T05:26:01.393Z,38203.66
2023-05-25T05:28:29.853Z,38195.69
2023-05-25T05:30:57.739Z,38211.63
2023-05-25T05:33:25.171Z,38199.69
2023-05-25T05:35:54.591Z,38211.63
2023-05-25T05:38:22.289Z,38213.63
2023-05-25T05:40:48.798Z,38219.63
2023-05-25T05:43:20.276Z,38221.59
2023-05-25T05:45:47.441Z,38241.56
2023-05-25T05:48:14.326Z,38211.63
2023-05-25T05:50:42.209Z,38243.53
2023-05-25T05:53:11.044Z,38233.56
2023-05-25T05:55:37.727Z,38275.44
2023-05-25T05:58:04.370Z,38273.47
2023-05-25T06:00:32.367Z,38303.38
2023-05-25T06:03:00.209Z,38319.31
2023-05-25T06:05:28.622Z,38319.31
2023-05-25T06:07:56.078Z,38323.31
2023-05-25T06:10:22.822Z,38319.31
2023-05-25T06:12:50.694Z,38341.25
2023-05-25T06:15:17.887Z,38339.28
2023-05-25T06:17:46.615Z,38363.19
2023-05-25T06:20:14.992Z,38335.28
2023-05-25T06:22:42.205Z,38361.19
2023-05-25T06:25:10.326Z,38365.19
2023-05-25T06:27:37.704Z,38347.25
2023-05-25T06:30:04.538Z,38347.25
2023-05-25T06:32:31.063Z,38329.28
2023-05-25T06:34:58.053Z,38341.25
2023-05-25T06:37:24.547Z,38323.31
2023-05-25T06:39:51.018Z,38325.31
2023-05-25T06:42:18.273Z,38331.28
2023-05-25T06:44:52.514Z,38321.31
2023-05-25T06:47:19.545Z,38339.28
2023-05-25T06:49:47.005Z,38337.28
2023-05-25T06:52:13.475Z,38335.28
2023-05-25T06:54:40.007Z,38337.28
2023-05-25T06:57:06.674Z,38331.28
2023-05-25T06:59:33.191Z,38309.34
2023-05-25T07:02:00.299Z,38331.28
2023-05-25T07:04:28.337Z,38339.28
2023-05-25T07:06:54.823Z,38347.25
2023-05-25T07:09:22.150Z,38285.44
2023-05-25T07:11:48.861Z,38333.28
2023-05-25T07:14:15.460Z,38329.28
2023-05-25T07:16:42.015Z,38311.34
2023-05-25T07:19:08.945Z,38329.28
2023-05-25T07:21:36.465Z,38331.28
2023-05-25T07:24:03.754Z,38319.31
2023-05-25T07:26:32.082Z,38287.41
2023-05-25T07:28:58.638Z,38319.31
2023-05-25T07:31:25.131Z,38289.41
2023-05-25T07:33:53.334Z,38291.41
2023-05-25T07:36:19.814Z,38331.28
2023-05-25T07:38:47.297Z,38315.34
2023-05-25T07:41:13.807Z,38337.28
2023-05-25T07:43:40.409Z,38331.28
2023-05-25T07:46:06.855Z,38347.25
2023-05-25T07:48:33.286Z,38315.34
2023-05-25T07:50:59.702Z,38351.22
2023-05-25T07:53:26.419Z,38345.25
2023-05-25T07:55:52.842Z,38307.34
2023-05-25T07:58:19.453Z,38307.34
2023-05-25T08:00:45.892Z,38331.28
2023-05-25T08:03:12.442Z,38307.34
2023-05-25T08:05:39.917Z,38327.31
2023-05-25T08:08:06.389Z,38321.31
2023-05-25T08:10:32.941Z,38295.41
2023-05-25T08:12:59.677Z,38259.50
2023-05-25T08:15:26.578Z,38267.47
2023-05-25T08:17:53.152Z,38295.41
2023-05-25T08:20:19.668Z,38301.38
2023-05-25T08:22:46.210Z,38311.34
2023-05-25T08:25:12.853Z,38297.38
2023-05-25T08:27:39.378Z,38297.38
2023-05-25T08:30:06.528Z,38311.34
2023-05-25T08:32:33.298Z,38315.34
2023-05-25T08:34:59.881Z,38319.31
2023-05-25T08:37:26.663Z,38319.31
2023-05-25T08:39:53.580Z,38331.28
2023-05-25T08:42:20.475Z,38367.19
2023-05-25T08:44:47.196Z,38327.31
2023-05-25T08:47:15.282Z,38347.25
2023-05-25T08:49:44.509Z,38351.22
2023-05-25T08:52:13.979Z,38387.13
2023-05-25T08:54:44.155Z,38355.22
2023-05-25T08:57:17.154Z,38395.09
2023-05-25T09:00:13.113Z,38383.13
2023-05-25T09:02:47.041Z,38383.13
2023-05-25T09:05:13.667Z,38379.16
2023-05-25T09:07:42.790Z,38387.13
2023-05-25T09:10:11.149Z,38419.03
2023-05-25T09:12:38.777Z,38407.06
2023-05-25T09:15:06.083Z,38417.03
2023-05-25T09:17:33.216Z,38419.03
2023-05-25T09:20:01.064Z,38415.06
2023-05-25T09:22:27.662Z,38353.22
2023-05-25T09:24:54.971Z,38359.22
2023-05-25T09:27:23.241Z,38355.22
2023-05-25T09:29:50.973Z,38351.22
2023-05-25T09:32:20.432Z,38355.22
2023-05-25T09:34:47.607Z,38315.34
2023-05-25T09:37:16.366Z,38343.25
2023-05-25T09:39:44.354Z,38391.13
2023-05-25T09:42:11.968Z,38355.22
2023-05-25T09:44:42.709Z,38413.06
2023-05-25T09:47:09.401Z,38379.16
2023-05-25T09:49:36.366Z,38391.13
2023-05-25T09:52:03.154Z,38357.22
2023-05-25T09:54:29.653Z,38363.19
2023-05-25T09:56:56.170Z,38371.19
2023-05-25T09:59:23.050Z,38421.03
2023-05-25T10:01:53.519Z,38438.97
2023-05-25T10:04:20.903Z,38423.03
2023-05-25T10:06:51.484Z,38419.03
2023-05-25T10:09:19.488Z,38450.94
2023-05-25T10:11:46.403Z,38458.91
2023-05-25T10:14:15.915Z,38417.03
2023-05-25T10:16:44.899Z,38431.00
2023-05-25T10:19:37.578Z,38429.00
2023-05-25T10:22:10.719Z,38411.06
2023-05-25T10:24:46.304Z,38431.00
2023-05-25T10:29:52.368Z,38403.09
2023-05-25T10:32:19.059Z,38435.00
2023-05-25T10:34:46.860Z,38431.00
2023-05-25T10:37:14.439Z,38423.03
2023-05-25T10:39:44.457Z,38367.19
2023-05-25T10:42:12.918Z,38399.09
2023-05-25T10:44:42.298Z,38419.03
2023-05-25T10:47:09.781Z,38419.03
2023-05-25T10:49:58.466Z,38399.09
2023-05-25T10:52:29.641Z,38423.03
2023-05-25T10:55:04.827Z,38431.00
2023-05-25T10:57:31.449Z,38423.03
2023-05-25T11:00:06.348Z,38405.06
2023-05-25T11:02:55.832Z,38355.22
2023-05-25T11:05:25.802Z,38363.19
2023-05-25T11:07:53.800Z,38407.06
2023-05-25T11:10:48.298Z,38355.22
2023-05-25T11:13:32.236Z,38379.16
2023-05-25T11:16:17.666Z,38355.22
2023-05-25T11:18:58.845Z,38385.13
2023-05-25T11:21:28.951Z,38379.16
2023-05-25T11:24:12.278Z,38379.16
2023-05-25T11:26:53.553Z,38403.09
2023-05-25T11:29:20.808Z,38383.13
2023-05-25T11:31:52.655Z,38383.13
2023-05-25T11:34:21.698Z,38411.06
2023-05-25T11:36:48.131Z,38347.25
2023-05-25T11:39:22.376Z,38339.28
2023-05-25T11:41:52.754Z,38435.00
2023-05-25T11:44:31.102Z,38427.00
2023-05-25T11:47:02.031Z,38429.00
2023-05-25T11:49:28.990Z,38460.91
2023-05-25T11:51:57.344Z,38500.81
2023-05-25T11:54:28.984Z,38522.75
2023-05-25T11:56:59.096Z,38514.75
2023-05-25T11:59:28.744Z,38502.78
2023-05-25T12:02:01.058Z,38534.72
2023-05-25T12:04:29.135Z,38492.81
2023-05-25T12:07:05.921Z,38510.78
2023-05-25T12:09:33.142Z,38484.84
2023-05-25T12:12:00.706Z,38494.81
2023-05-25T12:14:27.220Z,38552.66
2023-05-25T12:16:54.379Z,38610.50
2023-05-25T12:19:21.773Z,38606.50
2023-05-25T12:21:51.199Z,38610.50
2023-05-25T12:24:18.269Z,38662.34
2023-05-25T12:26:57.253Z,38706.22
2023-05-25T12:29:25.113Z,38795.97
2023-05-25T12:31:52.442Z,38825.91
2023-05-25T12:34:20.164Z,38893.72
2023-05-25T12:36:51.939Z,38873.75
2023-05-25T12:39:30.536Z,38869.78
2023-05-25T12:41:59.218Z,38843.84
2023-05-25T12:44:33.063Z,38809.94
2023-05-25T12:47:24.948Z,38853.81
2023-05-25T12:49:53.574Z,38742.13
2023-05-25T12:52:36.808Z,38732.16
2023-05-25T12:55:18.548Z,38809.94
2023-05-25T12:57:46.957Z,38813.94
2023-05-25T13:00:14.020Z,38770.03
2023-05-25T13:02:48.788Z,38833.88
2023-05-25T13:05:24.297Z,38746.13
2023-05-25T13:07:52.173Z,38688.28
2023-05-25T13:10:18.912Z,38658.34
2023-05-25T13:12:47.715Z,38618.47
2023-05-25T13:15:17.550Z,38586.56
2023-05-25T13:17:45.081Z,38510.78
2023-05-25T13:20:13.756Z,38570.59
2023-05-25T13:22:42.607Z,38650.38
2023-05-25T13:25:10.751Z,38648.38
2023-05-25T13:27:37.998Z,38592.53
2023-05-25T13:30:06.223Z,38546.66
2023-05-25T13:32:34.032Z,38570.59
2023-05-25T13:35:01.042Z,38554.66
2023-05-25T13:37:30.449Z,38494.81
2023-05-25T13:39:58.168Z,38492.81
2023-05-25T13:42:24.630Z,38478.88
2023-05-25T13:44:51.139Z,38482.84
2023-05-25T13:47:18.345Z,38468.91
2023-05-25T13:49:44.851Z,38458.91
2023-05-25T13:52:11.449Z,38476.88
2023-05-25T13:54:37.954Z,38355.22
2023-05-25T13:57:04.700Z,38361.19
2023-05-25T13:59:31.190Z,38327.31
2023-05-25T14:01:57.785Z,38359.22
2023-05-25T14:04:24.493Z,38351.22
2023-05-25T14:09:17.980Z,38373.16
2023-05-25T14:11:44.388Z,38347.25
2023-05-25T14:14:23.281Z,38331.28
2023-05-25T14:16:56.976Z,38303.38
2023-05-25T14:19:23.482Z,38319.31
2023-05-25T14:22:03.900Z,38315.34
2023-05-25T14:24:36.376Z,38357.22
2023-05-25T14:27:03.167Z,38301.38
2023-05-25T14:29:29.699Z,38291.41
2023-05-25T14:31:56.378Z,38315.34
2023-05-25T14:34:22.961Z,38235.56
2023-05-25T14:36:49.810Z,38257.50
2023-05-25T14:39:17.466Z,38279.44
2023-05-25T14:41:44.223Z,38239.56
2023-05-25T14:44:11.151Z,38273.47
2023-05-25T14:46:38.080Z,38293.41
2023-05-25T14:49:04.779Z,38317.34
2023-05-25T14:51:31.242Z,38317.34
2023-05-25T14:54:00.314Z,38355.22
2023-05-25T14:56:27.482Z,38407.06
2023-05-25T14:58:53.902Z,38385.13
2023-05-25T15:01:23.694Z,38427.00
2023-05-25T15:03:52.308Z,38353.22
2023-05-25T15:06:19.487Z,38311.34
2023-05-25T15:08:46.146Z,38341.25
2023-05-25T15:11:12.604Z,38311.34
2023-05-25T15:13:40.579Z,38351.22
2023-05-25T15:16:11.655Z,38355.22
2023-05-25T15:18:38.844Z,38359.22
2023-05-25T15:21:05.563Z,38319.31
2023-05-25T15:23:32.078Z,38303.38
2023-05-25T15:26:03.000Z,38321.31
2023-05-25T15:28:32.241Z,38263.50
2023-05-25T15:31:01.708Z,38291.41
2023-05-25T15:33:39.906Z,38263.50
2023-05-25T15:36:14.769Z,38217.63
2023-05-25T15:38:43.086Z,38243.53
2023-05-25T15:41:09.575Z,38155.81
2023-05-25T15:43:35.989Z,38183.72
2023-05-25T15:46:02.583Z,38131.88
2023-05-25T15:48:29.008Z,38183.72
2023-05-25T15:50:55.460Z,38199.69
2023-05-25T15:53:22.008Z,38215.63
2023-05-25T15:55:48.768Z,38211.63
2023-05-25T15:58:16.616Z,38179.72
2023-05-25T16:00:43.076Z,38183.72
2023-05-25T16:03:09.531Z,38187.72
2023-05-25T16:05:36.003Z,38195.69
2023-05-25T16:08:02.472Z,38145.84
2023-05-25T16:10:28.890Z,38135.88
2023-05-25T16:12:55.336Z,38139.84
2023-05-25T16:15:23.557Z,38147.81
2023-05-25T16:17:50.010Z,38127.88
2023-05-25T16:20:16.493Z,38056.09
2023-05-25T16:22:43.051Z,38056.09
2023-05-25T16:25:09.695Z,38020.22
2023-05-25T16:27:36.216Z,37992.28
2023-05-25T16:30:02.754Z,37948.44
2023-05-25T16:32:29.556Z,37964.38
2023-05-25T16:34:56.265Z,37954.41
2023-05-25T16:37:22.730Z,37942.44
2023-05-25T16:39:49.168Z,37946.44
2023-05-25T16:42:15.670Z,37964.38
2023-05-25T16:44:42.089Z,37972.34
2023-05-25T16:47:08.539Z,37968.38
2023-05-25T16:49:34.944Z,37942.44
2023-05-25T16:52:05.118Z,37942.44
2023-05-25T16:54:31.643Z,37948.44
2023-05-25T16:56:58.629Z,37960.38
2023-05-25T16:59:25.038Z,37952.41
2023-05-25T17:01:51.905Z,37964.38
2023-05-25T17:04:18.437Z,37980.31
2023-05-25T17:06:44.867Z,37960.38
2023-05-25T17:09:11.901Z,37940.44
2023-05-25T17:11:38.444Z,37900.56
2023-05-25T17:14:04.921Z,37880.63
2023-05-25T17:16:31.570Z,37862.69
2023-05-25T17:18:58.136Z,37850.72
2023-05-25T17:21:24.561Z,37840.75
2023-05-25T17:23:50.992Z,37878.63
2023-05-25T17:26:17.443Z,37868.66
2023-05-25T17:28:44.120Z,37846.72
2023-05-25T17:31:10.706Z,37888.59
2023-05-25T17:33:38.720Z,37860.69
2023-05-25T17:36:05.719Z,37868.66
2023-05-25T17:38:34.291Z,37878.63
2023-05-25T17:41:00.788Z,37860.69
2023-05-25T17:43:27.751Z,37876.63
2023-05-25T17:45:54.220Z,37820.81
2023-05-25T17:48:20.725Z,37792.91
2023-05-25T17:50:47.157Z,37812.84
2023-05-25T17:53:13.716Z,37824.81
2023-05-25T17:55:40.473Z,37848.72
2023-05-25T17:58:07.395Z,37836.75
2023-05-25T18:00:34.401Z,37808.84
2023-05-25T18:03:01.034Z,37840.75
2023-05-25T18:05:27.697Z,37832.78
2023-05-25T18:07:54.142Z,37852.72
2023-05-25T18:10:20.584Z,37848.72
2023-05-25T18:12:49.119Z,37832.78
2023-05-25T18:15:15.696Z,37800.88
2023-05-25T18:17:42.264Z,37794.88
2023-05-25T18:20:09.459Z,37792.91
2023-05-25T18:22:36.340Z,37764.97
2023-05-25T18:25:03.685Z,37755.00
2023-05-25T18:27:30.161Z,37780.94
2023-05-25T18:29:56.625Z,37796.88
2023-05-25T18:32:23.609Z,37808.84
2023-05-25T18:34:50.271Z,37788.91
2023-05-25T18:37:16.782Z,37784.91
2023-05-25T18:39:43.267Z,37804.84
2023-05-25T18:42:09.686Z,37790.91
2023-05-25T18:44:36.518Z,37755.00
2023-05-25T18:47:02.954Z,37749.03
2023-05-25T18:49:34.335Z,37721.13
2023-05-25T18:52:01.483Z,37749.03
2023-05-25T18:54:28.070Z,37739.06
2023-05-25T18:56:55.444Z,37739.06
2023-05-25T18:59:21.928Z,37768.97
2023-05-25T19:01:48.394Z,37747.03
2023-05-25T19:04:15.402Z,37741.06
2023-05-25T19:06:41.893Z,37768.97
2023-05-25T19:09:08.623Z,37735.06
2023-05-25T19:11:35.192Z,37749.03
2023-05-25T19:14:01.754Z,37725.09
2023-05-25T19:16:28.253Z,37713.13
2023-05-25T19:18:54.771Z,37737.06
2023-05-25T19:21:21.193Z,37731.09
2023-05-25T19:23:47.610Z,37713.13
2023-05-25T19:26:14.321Z,37725.09
2023-05-25T19:28:40.736Z,37741.06
2023-05-25T19:31:07.223Z,37729.09
2023-05-25T19:33:33.779Z,37707.16
2023-05-25T19:36:00.224Z,37685.22
2023-05-25T19:38:34.284Z,37693.19
2023-05-25T19:41:07.289Z,37673.25
2023-05-25T19:43:33.823Z,37687.22
2023-05-25T19:46:00.312Z,37669.28
2023-05-25T19:48:27.551Z,37657.31
2023-05-25T19:50:54.355Z,37637.38
2023-05-25T19:53:20.876Z,37631.41
2023-05-25T19:55:47.305Z,37649.34
2023-05-25T19:58:13.756Z,37649.34
2023-05-25T20:00:40.332Z,37649.34
2023-05-25T20:03:07.162Z,37647.34
2023-05-25T20:05:33.711Z,37621.44
2023-05-25T20:08:00.566Z,37629.41
2023-05-25T20:10:27.054Z,37603.47
2023-05-25T20:12:53.535Z,37633.38
2023-05-25T20:15:20.043Z,37587.53
2023-05-25T20:17:46.477Z,37573.56
2023-05-25T20:20:13.085Z,37581.56
2023-05-25T20:22:39.626Z,37557.63
2023-05-25T20:25:06.592Z,37569.59
2023-05-25T20:27:33.507Z,37585.53
2023-05-25T20:29:59.934Z,37585.53
2023-05-25T20:32:26.462Z,37533.69
2023-05-25T20:34:52.917Z,37549.66
2023-05-25T20:37:19.337Z,37513.75
2023-05-25T20:39:45.802Z,37531.72
2023-05-25T20:42:13.897Z,37513.75
2023-05-25T20:44:40.443Z,37497.81
2023-05-25T20:47:07.265Z,37521.75
2023-05-25T20:49:33.692Z,37501.81
2023-05-25T20:52:00.485Z,37509.78
2023-05-25T20:54:27.029Z,37497.81
2023-05-25T20:56:53.549Z,37491.84
2023-05-25T20:59:20.088Z,37505.78
2023-05-25T21:01:46.563Z,37515.75
2023-05-25T21:04:13.055Z,37481.88
2023-05-25T21:06:39.984Z,37473.88
2023-05-25T21:09:06.518Z,37479.88
2023-05-25T21:11:33.161Z,37479.88
2023-05-25T21:13:59.615Z,37442.00
2023-05-25T21:16:26.178Z,37473.88
2023-05-25T21:18:52.598Z,37475.88
2023-05-25T21:21:19.063Z,37442.00
2023-05-25T21:23:45.556Z,37447.97
2023-05-25T21:26:12.006Z,37453.94
2023-05-25T21:28:38.460Z,37436.00
2023-05-25T21:31:05.051Z,37426.03
2023-05-25T21:33:35.616Z,37418.06
2023-05-25T21:36:02.836Z,37434.00
2023-05-25T21:38:29.572Z,37422.06
2023-05-25T21:40:56.044Z,37434.00
2023-05-25T21:43:22.522Z,37406.09
2023-05-25T21:45:49.015Z,37396.13
2023-05-25T21:48:15.477Z,37394.13
2023-05-25T21:50:42.027Z,37400.13
2023-05-25T21:53:08.445Z,37408.09
2023-05-25T21:55:34.899Z,37386.16
2023-05-25T21:58:01.352Z,37392.16
2023-05-25T22:00:29.232Z,37398.13
2023-05-25T22:02:56.163Z,37402.13
2023-05-25T22:05:23.225Z,37384.16
2023-05-25T22:07:49.705Z,37390.16
2023-05-25T22:10:16.186Z,37406.09
2023-05-25T22:12:42.656Z,37410.09
2023-05-25T22:15:09.474Z,37370.22
2023-05-25T22:17:36.014Z,37378.19
2023-05-25T22:22:32.048Z,37358.25
2023-05-25T22:24:58.521Z,37368.22
2023-05-25T22:27:24.975Z,37364.25
2023-05-25T22:29:51.726Z,37358.25
2023-05-25T22:32:18.151Z,37362.25
2023-05-25T22:34:44.631Z,37354.28
2023-05-25T22:37:11.524Z,37344.31
2023-05-25T22:39:37.965Z,37342.31
2023-05-25T22:42:04.733Z,37320.38
2023-05-25T22:44:31.169Z,37310.41
2023-05-25T22:46:57.634Z,37348.28
2023-05-25T22:49:24.066Z,37320.38
2023-05-25T22:51:50.512Z,37334.34
2023-05-25T22:54:19.245Z,37348.28
2023-05-25T22:56:45.863Z,37312.41
2023-05-25T22:59:13.146Z,37314.41
2023-05-25T23:01:39.602Z,37322.38
2023-05-25T23:04:06.268Z,37308.41
2023-05-25T23:06:32.792Z,37298.44
2023-05-25T23:08:59.262Z,37282.50
2023-05-25T23:11:27.003Z,37290.47
2023-05-25T23:13:54.622Z,37314.41
2023-05-25T23:16:21.246Z,37292.47
2023-05-25T23:18:47.742Z,37248.59
2023-05-25T23:21:14.282Z,37270.53
2023-05-25T23:23:41.194Z,37258.56
2023-05-25T23:26:07.763Z,37268.53
2023-05-25T23:28:34.401Z,37284.50
2023-05-25T23:31:01.488Z,37244.63
2023-05-25T23:33:29.112Z,37268.53
2023-05-25T23:35:55.701Z,37274.53
2023-05-25T23:38:22.220Z,37194.78
2023-05-25T23:40:48.823Z,37238.63
2023-05-25T23:43:16.242Z,37262.56
2023-05-25T23:45:42.910Z,37246.63
2023-05-25T23:48:09.604Z,37222.69
2023-05-25T23:50:36.138Z,37214.72
2023-05-25T23:53:02.555Z,37252.59
2023-05-25T23:55:28.982Z,37258.56
2023-05-25T23:57:55.392Z,37274.53
